Regatta — V7DM3 — position and weather

sailwx.info

Track history (hours):
 
Tides and Currents Weather Stations Pressure Air Temp Water Temp Dewpoint Dewpoint Depression Visibility Wind Speed Wind Dir Waves Ship Positions

Regatta

Last reported at 2020-Sep-18 23:30 UTC. Time now 2020-Sep-27 14:51 UTC.
Position N 31°47' W 116°45'.
Warning: this ship's position is 8 days out of date.

Length 180 m; draft 6 m.

Type: Passenger vessel. MMSI: 538001664.

Date/timePositionNaut miles runAvg speedWind from/ knotsBaromVisibWave heightAir tempDewpointWater temp
2020-Sep-18 23:30N 31°47' W 116°45'10 9.8
2020-Sep-18 22:30N 31°43' W 116°55'24 9.4
2020-Sep-18 19:59N 31°32' W 117°20'9 1.8
2020-Sep-18 14:59N 31°37' W 117°29'14 9.5
2020-Sep-18 13:30N 31°50' W 117°37'30 9.5
2020-Sep-18 10:20N 31°20' W 117°29'7 2.5
2020-Sep-18 07:29N 31°23' W 117°37'510.4
2020-Sep-18 07:00N 31°27' W 117°39'2110.4
2020-Sep-18 04:59N 31°47' W 117°47'17 8.2
2020-Sep-18 02:53N 31°56' W 117°30'1510.6
2020-Sep-18 01:29N 31°42' W 117°24'4 8.6
2020-Sep-18 00:59N 31°40' W 117°20'  
Track history (hours):
 
Tides and Currents Weather Stations Pressure Air Temp Water Temp Dewpoint Dewpoint Depression Visibility Wind Speed Wind Dir Waves Ship Positions

Regatta

Last reported at 2020-Sep-18 23:30 UTC. Time now 2020-Sep-27 14:51 UTC.
Position N 31°47' W 116°45'.
Warning: this ship's position is 8 days out of date.

Length 180 m; draft 6 m.

Type: Passenger vessel. MMSI: 538001664.

Date/timePositionNaut miles runAvg speedWind from/ knotsBaromVisibWave heightAir tempDewpointWater temp
2020-Sep-18 23:30N 31°47' W 116°45'10 9.8
2020-Sep-18 22:30N 31°43' W 116°55'24 9.4
2020-Sep-18 19:59N 31°32' W 117°20'9 1.8
2020-Sep-18 14:59N 31°37' W 117°29'14 9.5
2020-Sep-18 13:30N 31°50' W 117°37'30 9.5
2020-Sep-18 10:20N 31°20' W 117°29'7 2.5
2020-Sep-18 07:29N 31°23' W 117°37'510.4
2020-Sep-18 07:00N 31°27' W 117°39'2110.4
2020-Sep-18 04:59N 31°47' W 117°47'17 8.2
2020-Sep-18 02:53N 31°56' W 117°30'1510.6
2020-Sep-18 01:29N 31°42' W 117°24'4 8.6
2020-Sep-18 00:59N 31°40' W 117°20'  

Dump ship's entire track history